createdAt,value
2023-04-11T00:01:35.197Z,41.09
2023-04-11T00:04:02.552Z,40.55
2023-04-11T00:06:29.771Z,40.39
2023-04-11T00:08:57.172Z,40.15
2023-04-11T00:11:24.696Z,39.73
2023-04-11T00:13:51.821Z,39.28
2023-04-11T00:16:19.631Z,39.29
2023-04-11T00:18:47.248Z,39.37
2023-04-11T00:21:14.343Z,39.21
2023-04-11T00:23:41.472Z,39.15
2023-04-11T00:26:08.724Z,39.15
2023-04-11T00:28:37.792Z,39.17
2023-04-11T00:31:05.472Z,39.24
2023-04-11T00:33:32.556Z,39.34
2023-04-11T00:35:59.784Z,39.10
2023-04-11T00:38:27.235Z,38.97
2023-04-11T00:40:54.351Z,38.52
2023-04-11T00:43:21.543Z,38.67
2023-04-11T00:45:48.893Z,38.67
2023-04-11T00:48:16.605Z,38.85
2023-04-11T00:50:43.912Z,38.70
2023-04-11T00:53:14.905Z,38.91
2023-04-11T00:55:42.023Z,38.67
2023-04-11T00:58:09.202Z,38.66
2023-04-11T01:00:37.427Z,38.62
2023-04-11T01:03:05.269Z,38.18
2023-04-11T01:05:34.410Z,38.35
2023-04-11T01:08:02.740Z,38.34
2023-04-11T01:10:31.909Z,38.39
2023-04-11T01:13:02.585Z,38.15
2023-04-11T01:15:30.285Z,37.89
2023-04-11T01:17:57.942Z,37.84
2023-04-11T01:20:26.594Z,37.94
2023-04-11T01:22:56.852Z,37.79
2023-04-11T01:25:25.145Z,37.87
2023-04-11T01:27:52.461Z,37.89
2023-04-11T01:30:19.596Z,37.93
2023-04-11T01:32:47.852Z,37.67
2023-04-11T01:35:16.627Z,38.00
2023-04-11T01:37:44.978Z,38.47
2023-04-11T01:40:19.325Z,38.22
2023-04-11T01:42:47.306Z,38.38
2023-04-11T01:45:15.075Z,38.64
2023-04-11T01:47:42.431Z,38.38
2023-04-11T01:50:10.055Z,38.36
2023-04-11T01:52:37.267Z,38.74
2023-04-11T01:55:05.280Z,38.76
2023-04-11T01:57:32.706Z,38.58
2023-04-11T02:00:00.781Z,39.00
2023-04-11T02:02:28.001Z,38.98
2023-04-11T02:04:55.257Z,38.92
2023-04-11T02:07:22.392Z,38.95
2023-04-11T02:09:49.553Z,38.83
2023-04-11T02:12:16.674Z,38.81
2023-04-11T02:14:46.074Z,38.47
2023-04-11T02:17:14.137Z,38.53
2023-04-11T02:19:42.117Z,38.54
2023-04-11T02:22:09.511Z,39.04
2023-04-11T02:24:36.617Z,38.94
2023-04-11T02:27:04.307Z,38.65
2023-04-11T02:29:31.487Z,38.61
2023-04-11T02:31:58.687Z,38.49
2023-04-11T02:34:26.495Z,38.21
2023-04-11T02:36:54.078Z,38.01
2023-04-11T02:39:24.231Z,37.94
2023-04-11T02:41:51.792Z,38.47
2023-04-11T02:44:19.865Z,38.25
2023-04-11T02:46:47.472Z,38.09
2023-04-11T02:49:14.751Z,37.98
2023-04-11T02:51:42.657Z,38.14
2023-04-11T02:54:09.860Z,37.87
2023-04-11T02:56:39.091Z,37.71
2023-04-11T02:59:07.232Z,37.55
2023-04-11T03:01:35.053Z,37.53
2023-04-11T03:04:02.519Z,37.33
2023-04-11T03:06:40.751Z,37.38
2023-04-11T03:09:07.938Z,37.67
2023-04-11T03:11:35.074Z,37.84
2023-04-11T03:14:03.482Z,37.70
2023-04-11T03:16:30.763Z,37.89
2023-04-11T03:18:58.670Z,37.84
2023-04-11T03:21:26.446Z,37.68
2023-04-11T03:23:54.421Z,38.11
2023-04-11T03:26:27.168Z,38.18
2023-04-11T03:28:58.723Z,37.84
2023-04-11T03:31:30.531Z,37.98
2023-04-11T03:33:59.284Z,37.47
2023-04-11T03:36:27.158Z,37.78
2023-04-11T03:38:54.921Z,37.40
2023-04-11T03:41:22.389Z,37.45
2023-04-11T03:43:51.338Z,37.43
2023-04-11T03:46:21.547Z,37.28
2023-04-11T03:48:48.690Z,37.58
2023-04-11T03:51:17.597Z,37.26
2023-04-11T03:53:59.646Z,37.49
2023-04-11T03:56:31.464Z,37.49
2023-04-11T03:58:58.945Z,37.41
2023-04-11T04:01:32.541Z,37.42
2023-04-11T04:04:03.609Z,37.56
2023-04-11T04:06:35.974Z,37.98
2023-04-11T04:09:07.094Z,38.54
2023-04-11T04:11:46.268Z,38.60
2023-04-11T04:14:14.305Z,38.51
2023-04-11T04:16:41.716Z,38.99
2023-04-11T04:19:11.797Z,39.34
2023-04-11T04:21:45.857Z,39.63
2023-04-11T04:24:15.118Z,39.55
2023-04-11T04:27:01.084Z,40.04
2023-04-11T04:29:57.066Z,39.86
2023-04-11T04:32:36.774Z,39.89
2023-04-11T04:35:11.666Z,40.13
2023-04-11T04:37:45.382Z,41.22
2023-04-11T04:40:27.636Z,41.44
2023-04-11T04:42:59.822Z,40.77
2023-04-11T04:45:37.529Z,41.00
2023-04-11T04:48:05.864Z,41.44
2023-04-11T04:50:33.244Z,41.89
2023-04-11T04:53:00.542Z,42.36
2023-04-11T04:55:28.942Z,42.57
2023-04-11T04:57:56.459Z,43.32
2023-04-11T05:00:24.151Z,43.60
2023-04-11T05:02:56.780Z,44.31
2023-04-11T05:05:26.831Z,44.80
2023-04-11T05:07:54.128Z,44.48
2023-04-11T05:10:21.432Z,44.71
2023-04-11T05:12:49.670Z,45.22
2023-04-11T05:15:16.937Z,45.25
2023-04-11T05:17:44.959Z,45.08
2023-04-11T05:20:13.841Z,44.75
2023-04-11T05:22:43.441Z,45.75
2023-04-11T05:25:11.706Z,45.79
2023-04-11T05:27:41.105Z,45.85
2023-04-11T05:30:10.372Z,45.87
2023-04-11T05:32:39.569Z,46.23
2023-04-11T05:35:08.266Z,45.93
2023-04-11T05:37:55.771Z,46.00
2023-04-11T05:40:22.892Z,46.19
2023-04-11T05:42:50.926Z,46.02
2023-04-11T05:45:19.455Z,45.47
2023-04-11T05:47:46.656Z,45.89
2023-04-11T05:50:15.772Z,45.68
2023-04-11T05:52:42.872Z,46.25
2023-04-11T05:55:11.223Z,46.21
2023-04-11T05:57:38.462Z,45.95
2023-04-11T06:00:12.898Z,45.89
2023-04-11T06:02:44.047Z,46.05
2023-04-11T06:05:12.245Z,46.14
2023-04-11T06:07:40.279Z,46.03
2023-04-11T06:10:09.161Z,45.95
2023-04-11T06:12:36.567Z,46.76
2023-04-11T06:15:04.131Z,45.84
2023-04-11T06:17:31.336Z,46.27
2023-04-11T06:19:58.797Z,45.71
2023-04-11T06:22:26.167Z,46.00
2023-04-11T06:24:53.345Z,46.79
2023-04-11T06:27:20.809Z,46.83
2023-04-11T06:29:47.888Z,46.67
2023-04-11T06:32:15.209Z,46.88
2023-04-11T06:34:42.368Z,46.96
2023-04-11T06:37:10.042Z,46.97
2023-04-11T06:39:37.173Z,47.66
2023-04-11T06:42:04.429Z,47.65
2023-04-11T06:44:33.306Z,48.07
2023-04-11T06:47:00.474Z,48.64
2023-04-11T06:49:31.339Z,49.35
2023-04-11T06:51:59.548Z,49.81
2023-04-11T06:54:26.712Z,50.73
2023-04-11T06:56:53.861Z,51.58
2023-04-11T06:59:21.991Z,52.52
2023-04-11T07:01:50.519Z,52.74
2023-04-11T07:04:17.958Z,54.53
2023-04-11T07:06:46.155Z,55.39
2023-04-11T07:09:13.385Z,57.02
2023-04-11T07:11:40.994Z,57.59
2023-04-11T07:14:10.364Z,58.22
2023-04-11T07:16:37.599Z,58.57
2023-04-11T07:19:04.839Z,57.69
2023-04-11T07:21:32.507Z,58.31
2023-04-11T07:24:01.069Z,57.81
2023-04-11T07:26:32.617Z,57.69
2023-04-11T07:29:00.985Z,57.15
2023-04-11T07:31:28.095Z,55.64
2023-04-11T07:33:58.107Z,55.34
2023-04-11T07:36:26.769Z,55.96
2023-04-11T07:38:54.256Z,55.39
2023-04-11T07:41:21.611Z,55.58
2023-04-11T07:43:49.018Z,55.08
2023-04-11T07:46:16.240Z,55.82
2023-04-11T07:48:43.430Z,56.43
2023-04-11T07:51:11.152Z,56.34
2023-04-11T07:53:38.483Z,56.27
2023-04-11T07:56:06.520Z,56.01
2023-04-11T07:58:33.911Z,56.65
2023-04-11T08:01:02.739Z,56.00
2023-04-11T08:03:30.148Z,56.22
2023-04-11T08:05:57.562Z,56.43
2023-04-11T08:08:26.087Z,56.16
2023-04-11T08:10:53.433Z,54.89
2023-04-11T08:13:20.781Z,55.42
2023-04-11T08:15:47.934Z,54.75
2023-04-11T08:18:16.612Z,54.08
2023-04-11T08:20:43.762Z,53.35
2023-04-11T08:23:11.404Z,53.92
2023-04-11T08:25:39.275Z,53.82
2023-04-11T08:28:06.684Z,53.16
2023-04-11T08:30:34.167Z,52.57
2023-04-11T08:33:01.986Z,53.25
2023-04-11T08:35:29.646Z,53.37
2023-04-11T08:37:56.755Z,53.29
2023-04-11T08:40:25.801Z,53.14
2023-04-11T08:43:02.764Z,52.87
2023-04-11T08:45:30.249Z,52.33
2023-04-11T08:47:57.286Z,51.66
2023-04-11T08:50:24.503Z,51.48
2023-04-11T08:52:53.117Z,51.44
2023-04-11T08:55:20.402Z,50.77
2023-04-11T08:57:47.489Z,50.77
2023-04-11T09:00:17.017Z,50.14
2023-04-11T09:03:01.577Z,50.36
2023-04-11T09:05:41.302Z,48.74
2023-04-11T09:08:12.316Z,50.07
2023-04-11T09:10:41.894Z,50.18
2023-04-11T09:13:24.991Z,50.59
2023-04-11T09:16:06.743Z,50.43
2023-04-11T09:18:42.680Z,50.34
2023-04-11T09:21:13.058Z,49.11
2023-04-11T09:23:40.811Z,49.09
2023-04-11T09:26:10.626Z,49.25
2023-04-11T09:28:53.725Z,48.44
2023-04-11T09:31:22.268Z,47.25
2023-04-11T09:33:55.045Z,47.12
2023-04-11T09:36:24.908Z,46.99
2023-04-11T09:38:54.515Z,46.88
2023-04-11T09:41:32.242Z,46.48
2023-04-11T09:44:00.125Z,46.17
2023-04-11T09:46:27.448Z,45.31
2023-04-11T09:48:56.237Z,44.59
2023-04-11T09:51:35.732Z,44.85
2023-04-11T09:54:05.513Z,44.66
2023-04-11T09:56:36.359Z,44.48
2023-04-11T09:59:05.339Z,44.01
2023-04-11T10:01:32.908Z,43.50
2023-04-11T10:04:01.496Z,43.60
2023-04-11T10:06:35.019Z,43.48
2023-04-11T10:09:13.464Z,41.55
2023-04-11T10:11:45.041Z,42.93
2023-04-11T10:14:49.144Z,41.94
2023-04-11T10:17:23.596Z,41.97
2023-04-11T10:19:56.724Z,42.39
2023-04-11T10:23:00.766Z,42.35
2023-04-11T10:25:28.838Z,42.51
2023-04-11T10:28:04.076Z,42.67
2023-04-11T10:30:40.515Z,41.00
2023-04-11T10:33:17.720Z,39.63
2023-04-11T10:36:06.596Z,38.31
2023-04-11T10:38:48.765Z,39.28
2023-04-11T10:41:32.154Z,39.45
2023-04-11T10:44:18.667Z,37.80
2023-04-11T10:46:54.257Z,37.77
2023-04-11T10:49:39.076Z,38.26
2023-04-11T10:52:23.839Z,39.19
2023-04-11T10:54:53.197Z,40.59
2023-04-11T10:57:22.987Z,43.31
2023-04-11T10:59:50.335Z,57.81
2023-04-11T11:02:19.662Z,60.63
2023-04-11T11:04:47.522Z,62.33
2023-04-11T11:07:18.750Z,62.39
2023-04-11T11:09:51.269Z,63.85
2023-04-11T11:12:18.722Z,62.50
2023-04-11T11:14:47.254Z,62.59
2023-04-11T11:17:17.330Z,64.28
2023-04-11T11:19:46.436Z,59.77
2023-04-11T11:22:18.247Z,60.74
2023-04-11T11:24:45.504Z,58.83
2023-04-11T11:27:25.073Z,57.39
2023-04-11T11:29:53.131Z,56.96
2023-04-11T11:32:30.336Z,56.00
2023-04-11T11:34:58.786Z,52.15
2023-04-11T11:37:25.964Z,52.62
2023-04-11T11:39:53.671Z,52.44
2023-04-11T11:42:21.020Z,55.06
2023-04-11T11:44:48.173Z,56.74
2023-04-11T11:47:15.576Z,57.12
2023-04-11T11:49:56.084Z,58.93
2023-04-11T11:52:40.619Z,58.91
2023-04-11T11:55:19.845Z,58.84
2023-04-11T11:57:48.945Z,57.82
2023-04-11T12:00:24.717Z,57.31
2023-04-11T12:02:56.720Z,55.00
2023-04-11T12:05:30.902Z,50.49
2023-04-11T12:08:00.763Z,49.23
2023-04-11T12:10:49.172Z,47.48
2023-04-11T12:13:25.644Z,45.81
2023-04-11T12:15:57.328Z,44.44
2023-04-11T12:18:26.659Z,41.78
2023-04-11T12:20:53.991Z,41.60
2023-04-11T12:23:22.666Z,41.57
2023-04-11T12:25:49.896Z,40.55
2023-04-11T12:28:17.202Z,37.83
2023-04-11T12:30:44.253Z,34.18
2023-04-11T12:33:11.358Z,29.68
2023-04-11T12:35:38.517Z,28.83
2023-04-11T12:38:07.629Z,28.92
2023-04-11T12:40:34.767Z,28.65
2023-04-11T12:43:01.862Z,30.44
2023-04-11T12:45:28.966Z,30.53
2023-04-11T12:47:56.156Z,30.75
2023-04-11T12:50:24.222Z,31.65
2023-04-11T12:52:53.043Z,31.58
2023-04-11T12:55:20.331Z,30.48
2023-04-11T12:57:47.465Z,29.55
2023-04-11T13:00:15.462Z,28.86
2023-04-11T13:02:45.189Z,28.32
2023-04-11T13:05:17.006Z,27.80
2023-04-11T13:07:45.662Z,28.16
2023-04-11T13:10:16.536Z,30.80
2023-04-11T13:12:45.876Z,32.25
2023-04-11T13:15:15.298Z,30.78
2023-04-11T13:17:43.274Z,30.17
2023-04-11T13:20:11.632Z,31.36
2023-04-11T13:22:43.274Z,31.67
2023-04-11T13:25:12.072Z,33.34
2023-04-11T13:27:40.304Z,34.13
2023-04-11T13:30:09.976Z,34.50
2023-04-11T13:32:37.226Z,35.67
2023-04-11T13:35:05.865Z,34.22
2023-04-11T13:37:32.998Z,34.73
2023-04-11T13:40:00.534Z,33.30
2023-04-11T13:42:27.636Z,31.58
2023-04-11T13:44:54.761Z,32.92
2023-04-11T13:47:21.924Z,34.24
2023-04-11T13:49:49.065Z,34.76
2023-04-11T13:52:16.250Z,35.12
2023-04-11T13:54:43.396Z,36.49
2023-04-11T13:57:10.488Z,36.10
2023-04-11T13:59:37.696Z,36.57
2023-04-11T14:02:04.811Z,37.12
2023-04-11T14:04:32.207Z,36.54
2023-04-11T14:06:59.567Z,31.05
2023-04-11T14:09:26.659Z,28.57
2023-04-11T14:11:53.697Z,26.74
2023-04-11T14:14:20.748Z,28.36
2023-04-11T14:16:48.370Z,34.84
2023-04-11T14:19:15.804Z,31.82
2023-04-11T14:21:43.715Z,31.54
2023-04-11T14:24:11.556Z,34.36
2023-04-11T14:26:38.827Z,35.25
2023-04-11T14:29:05.938Z,37.06
2023-04-11T14:31:33.173Z,37.55
2023-04-11T14:34:00.326Z,34.59
2023-04-11T14:36:28.119Z,33.44
2023-04-11T14:38:55.398Z,33.91
2023-04-11T14:41:23.360Z,34.94
2023-04-11T14:43:50.868Z,35.43
2023-04-11T14:46:18.115Z,34.32
2023-04-11T14:48:45.426Z,33.99
2023-04-11T14:51:12.565Z,35.30
2023-04-11T14:53:39.666Z,36.73
2023-04-11T14:56:07.674Z,36.88
2023-04-11T14:58:34.828Z,38.53
2023-04-11T15:01:02.235Z,37.42
2023-04-11T15:03:30.878Z,35.99
2023-04-11T15:05:58.026Z,36.01
2023-04-11T15:08:25.138Z,37.66
2023-04-11T15:10:54.499Z,40.57
2023-04-11T15:13:22.928Z,41.99
2023-04-11T15:15:50.182Z,38.83
2023-04-11T15:18:21.900Z,39.06
2023-04-11T15:20:49.676Z,39.79
2023-04-11T15:23:20.710Z,40.51
2023-04-11T15:25:57.218Z,38.24
2023-04-11T15:28:26.640Z,36.40
2023-04-11T15:30:55.396Z,34.51
2023-04-11T15:33:24.050Z,32.23
2023-04-11T15:35:54.045Z,31.22
2023-04-11T15:38:21.938Z,29.95
2023-04-11T15:40:58.410Z,29.73
2023-04-11T15:43:26.189Z,31.26
2023-04-11T15:45:54.015Z,29.86
2023-04-11T15:48:21.159Z,29.56
2023-04-11T15:50:48.279Z,29.92
2023-04-11T15:53:15.455Z,31.74
2023-04-11T15:55:43.719Z,31.82
2023-04-11T15:58:11.105Z,32.46
2023-04-11T16:00:39.991Z,33.57
2023-04-11T16:03:08.483Z,34.33
2023-04-11T16:05:38.418Z,35.72
2023-04-11T16:08:07.476Z,36.39
2023-04-11T16:10:35.112Z,37.43
2023-04-11T16:13:02.729Z,38.62
2023-04-11T16:15:29.817Z,39.80
2023-04-11T16:17:56.968Z,40.38
2023-04-11T16:20:24.284Z,37.01
2023-04-11T16:22:51.432Z,31.35
2023-04-11T16:25:21.181Z,27.17
2023-04-11T16:27:49.696Z,24.79
2023-04-11T16:30:17.272Z,24.04
2023-04-11T16:32:44.904Z,23.89
2023-04-11T16:35:12.131Z,25.81
2023-04-11T16:37:39.363Z,27.69
2023-04-11T16:40:13.670Z,27.89
2023-04-11T16:42:41.017Z,29.78
2023-04-11T16:45:09.988Z,30.11
2023-04-11T16:47:37.166Z,30.09
2023-04-11T16:50:05.885Z,31.42
2023-04-11T16:52:33.375Z,32.21
2023-04-11T16:55:01.228Z,33.77
2023-04-11T16:57:28.334Z,34.73
2023-04-11T16:59:55.647Z,34.51
2023-04-11T17:02:22.797Z,35.57
2023-04-11T17:04:49.957Z,36.76
2023-04-11T17:07:17.361Z,37.63
2023-04-11T17:09:48.421Z,38.76
2023-04-11T17:12:15.950Z,38.88
2023-04-11T17:14:44.259Z,39.32
2023-04-11T17:17:11.556Z,38.55
2023-04-11T17:19:38.673Z,39.19
2023-04-11T17:22:06.110Z,39.43
2023-04-11T17:24:33.276Z,39.28
2023-04-11T17:27:00.382Z,39.13
2023-04-11T17:29:27.757Z,38.84
2023-04-11T17:31:54.836Z,39.19
2023-04-11T17:34:22.057Z,39.40
2023-04-11T17:36:49.107Z,38.87
2023-04-11T17:39:18.809Z,39.01
2023-04-11T17:41:46.420Z,39.18
2023-04-11T17:44:13.857Z,39.16
2023-04-11T17:46:41.261Z,39.19
2023-04-11T17:49:08.693Z,39.68
2023-04-11T17:51:38.922Z,40.32
2023-04-11T17:54:10.607Z,40.71
2023-04-11T17:56:37.965Z,41.43
2023-04-11T17:59:05.405Z,42.56
2023-04-11T18:01:35.724Z,43.40
2023-04-11T18:04:09.878Z,43.47
2023-04-11T18:06:37.398Z,43.30
2023-04-11T18:09:05.961Z,43.32
2023-04-11T18:11:33.632Z,43.37
2023-04-11T18:14:01.268Z,43.16
2023-04-11T18:16:28.530Z,42.90
2023-04-11T18:18:56.930Z,42.91
2023-04-11T18:21:24.210Z,42.63
2023-04-11T18:23:51.415Z,42.54
2023-04-11T18:26:18.666Z,41.67
2023-04-11T18:28:46.113Z,41.28
2023-04-11T18:31:16.622Z,41.00
2023-04-11T18:33:45.885Z,41.37
2023-04-11T18:36:14.900Z,42.04
2023-04-11T18:38:47.235Z,42.22
2023-04-11T18:41:15.228Z,42.32
2023-04-11T18:43:43.181Z,42.47
2023-04-11T18:46:10.686Z,42.27
2023-04-11T18:48:38.196Z,42.58
2023-04-11T18:51:06.849Z,43.30
2023-04-11T18:53:36.906Z,44.05
2023-04-11T18:56:08.392Z,45.58
2023-04-11T18:58:45.808Z,46.53
2023-04-11T19:01:16.452Z,46.67
2023-04-11T19:03:44.750Z,47.39
2023-04-11T19:06:13.050Z,48.50
2023-04-11T19:08:40.777Z,47.80
2023-04-11T19:11:07.998Z,48.58
2023-04-11T19:13:35.138Z,48.98
2023-04-11T19:16:02.293Z,48.67
2023-04-11T19:18:29.394Z,49.03
2023-04-11T19:20:56.550Z,49.44
2023-04-11T19:23:23.909Z,49.00
2023-04-11T19:25:51.765Z,48.18
2023-04-11T19:28:21.991Z,47.80
2023-04-11T19:30:49.255Z,48.20
2023-04-11T19:33:16.423Z,47.59
2023-04-11T19:35:43.577Z,47.43
2023-04-11T19:38:11.760Z,47.35
2023-04-11T19:40:38.805Z,47.37
2023-04-11T19:43:07.543Z,48.00
2023-04-11T19:45:34.643Z,48.63
2023-04-11T19:48:01.841Z,48.76
2023-04-11T19:50:29.731Z,49.46
2023-04-11T19:52:57.007Z,49.76
2023-04-11T19:55:24.635Z,49.98
2023-04-11T19:57:51.781Z,49.83
2023-04-11T20:00:19.440Z,50.08
2023-04-11T20:02:48.673Z,50.44
2023-04-11T20:05:22.195Z,51.05
2023-04-11T20:07:49.427Z,51.69
2023-04-11T20:10:17.309Z,51.64
2023-04-11T20:12:44.708Z,52.16
2023-04-11T20:15:12.094Z,52.77
2023-04-11T20:17:39.389Z,53.18
2023-04-11T20:20:11.460Z,53.56
2023-04-11T20:22:40.391Z,53.75
2023-04-11T20:25:08.136Z,53.58
2023-04-11T20:27:35.421Z,53.79
2023-04-11T20:30:07.860Z,53.87
2023-04-11T20:32:35.005Z,54.53
2023-04-11T20:35:02.530Z,55.52
2023-04-11T20:37:34.421Z,56.17
2023-04-11T20:40:06.672Z,56.49
2023-04-11T20:42:35.249Z,56.27
2023-04-11T20:45:11.637Z,56.44
2023-04-11T20:47:40.570Z,56.71
2023-04-11T20:50:10.466Z,56.58
2023-04-11T20:52:38.368Z,56.30
2023-04-11T20:55:06.130Z,56.45
2023-04-11T20:57:33.730Z,56.45
2023-04-11T21:00:02.271Z,56.56
2023-04-11T21:02:29.589Z,56.80
2023-04-11T21:04:56.876Z,57.08
2023-04-11T21:07:24.002Z,57.05
2023-04-11T21:09:51.141Z,56.79
2023-04-11T21:12:18.268Z,56.61
2023-04-11T21:14:45.390Z,56.40
2023-04-11T21:17:13.032Z,56.00
2023-04-11T21:19:40.387Z,55.53
2023-04-11T21:22:07.534Z,55.08
2023-04-11T21:24:35.278Z,54.77
2023-04-11T21:27:02.655Z,55.01
2023-04-11T21:29:29.781Z,54.70
2023-04-11T21:31:56.784Z,54.76
2023-04-11T21:34:23.959Z,54.70
2023-04-11T21:36:51.207Z,54.55
2023-04-11T21:39:19.767Z,54.32
2023-04-11T21:41:46.845Z,54.49
2023-04-11T21:44:13.886Z,55.04
2023-04-11T21:46:41.118Z,55.56
2023-04-11T21:49:08.388Z,56.09
2023-04-11T21:51:35.512Z,56.27
2023-04-11T21:54:05.121Z,55.87
2023-04-11T21:56:32.249Z,55.77
2023-04-11T21:58:59.262Z,55.55
2023-04-11T22:01:27.146Z,55.35
2023-04-11T22:03:56.550Z,54.88
2023-04-11T22:06:26.488Z,54.70
2023-04-11T22:08:53.540Z,54.58
2023-04-11T22:11:20.753Z,54.17
2023-04-11T22:13:47.914Z,54.15
2023-04-11T22:16:15.161Z,54.11
2023-04-11T22:18:49.050Z,54.33
2023-04-11T22:21:20.120Z,54.68
2023-04-11T22:23:55.621Z,54.28
2023-04-11T22:26:29.245Z,54.26
2023-04-11T22:28:58.433Z,54.20
2023-04-11T22:31:30.748Z,54.25
2023-04-11T22:33:58.187Z,54.71
2023-04-11T22:36:25.474Z,54.24
2023-04-11T22:38:53.032Z,54.15
2023-04-11T22:41:20.193Z,53.99
2023-04-11T22:43:47.293Z,54.44
2023-04-11T22:46:14.537Z,54.30
2023-04-11T22:48:42.587Z,54.56
2023-04-11T22:51:09.770Z,54.51
2023-04-11T22:53:42.207Z,54.30
2023-04-11T22:56:11.174Z,54.78
2023-04-11T22:58:38.223Z,54.82
2023-04-11T23:01:06.415Z,55.04
2023-04-11T23:03:33.548Z,54.48
2023-04-11T23:06:00.757Z,54.24
2023-04-11T23:08:29.391Z,54.22
2023-04-11T23:10:56.554Z,54.21
2023-04-11T23:13:23.731Z,53.86
2023-04-11T23:15:50.879Z,53.54
2023-04-11T23:18:18.790Z,53.62
2023-04-11T23:20:49.504Z,53.99
2023-04-11T23:23:17.591Z,54.05
2023-04-11T23:25:45.482Z,54.29
2023-04-11T23:28:12.736Z,54.41
2023-04-11T23:30:40.407Z,54.23
2023-04-11T23:33:08.992Z,54.08
2023-04-11T23:35:36.309Z,53.94
2023-04-11T23:38:04.019Z,53.88
2023-04-11T23:40:31.901Z,53.74
2023-04-11T23:42:59.060Z,53.30
2023-04-11T23:45:26.279Z,53.12
2023-04-11T23:47:53.585Z,52.76
2023-04-11T23:50:22.020Z,52.45
2023-04-11T23:52:49.235Z,52.54
2023-04-11T23:55:16.415Z,52.86
2023-04-11T23:57:43.609Z,53.16
